Time;durP1;ratioP1;P1;durP2;ratioP2;P2;SDS_P1;SDS_P2;PMS_P1;PMS_P2;Temp;Humidity;BMP_temperature;BMP_pressure;BME280_temperature;BME280_humidity;BME280_pressure;Samples;Min_cycle;Max_cycle;Signal;HPM_P1;HPM_P2
2021/05/08 00:00:57;;;;;;;7.97;6.77;;;4.70;99.90;;;;;;5002948;28;20536;-78
2021/05/08 00:03:24;;;;;;;7.43;6.43;;;4.70;99.90;;;;;;5003012;28;20197;-74
2021/05/08 00:05:51;;;;;;;7.70;6.90;;;4.60;99.90;;;;;;5001941;28;20246;-76
2021/05/08 00:08:17;;;;;;;7.10;6.40;;;4.60;99.90;;;;;;5002558;28;20212;-76
2021/05/08 00:10:44;;;;;;;8.30;6.83;;;4.60;99.90;;;;;;5002398;28;20193;-76
2021/05/08 00:13:11;;;;;;;10.00;6.60;;;4.50;99.90;;;;;;5000654;28;20232;-76
2021/05/08 00:15:38;;;;;;;8.23;6.80;;;4.50;99.90;;;;;;4993460;28;20208;-77
2021/05/08 00:18:04;;;;;;;8.40;6.53;;;4.50;99.90;;;;;;4990252;28;20221;-76
2021/05/08 00:20:33;;;;;;;12.10;7.13;;;4.50;99.90;;;;;;4997323;28;20314;-77
2021/05/08 00:23:00;;;;;;;8.87;7.00;;;4.50;99.90;;;;;;5000281;28;20264;-76
2021/05/08 00:25:26;;;;;;;9.03;7.37;;;4.50;99.90;;;;;;4988675;28;20716;-75
2021/05/08 00:27:53;;;;;;;8.00;6.83;;;4.40;99.90;;;;;;4995254;28;20232;-77
2021/05/08 00:30:20;;;;;;;9.27;7.30;;;4.40;99.90;;;;;;4994362;28;20290;-76
2021/05/08 00:32:47;;;;;;;9.17;6.77;;;4.40;99.90;;;;;;5000536;28;20760;-77
2021/05/08 00:35:13;;;;;;;9.13;6.70;;;4.40;99.90;;;;;;4997330;28;20193;-77
2021/05/08 00:37:40;;;;;;;8.00;6.80;;;4.40;99.90;;;;;;5003359;28;20221;-77
2021/05/08 00:40:08;;;;;;;9.57;6.80;;;4.40;99.90;;;;;;5005151;28;20201;-77
2021/05/08 00:42:35;;;;;;;8.97;6.57;;;4.50;99.90;;;;;;5004715;28;20206;-77
2021/05/08 00:45:01;;;;;;;8.53;6.80;;;4.50;99.90;;;;;;5002824;28;20201;-76
2021/05/08 00:47:28;;;;;;;8.50;6.10;;;4.50;99.90;;;;;;4997678;28;20806;-76
2021/05/08 00:49:55;;;;;;;9.13;7.27;;;4.50;99.90;;;;;;5007176;28;20201;-77
2021/05/08 00:52:22;;;;;;;8.20;6.70;;;4.60;99.90;;;;;;5007801;28;20193;-76
2021/05/08 00:54:49;;;;;;;9.43;7.10;;;4.50;99.90;;;;;;5002295;28;20253;-75
2021/05/08 00:57:16;;;;;;;7.53;6.40;;;4.60;99.90;;;;;;4997806;28;20236;-77
2021/05/08 00:59:42;;;;;;;8.27;7.03;;;4.60;99.90;;;;;;4999473;28;20198;-77
2021/05/08 01:02:09;;;;;;;10.67;7.40;;;4.60;99.90;;;;;;4998408;28;20263;-76
2021/05/08 01:04:35;;;;;;;10.30;7.07;;;4.60;99.90;;;;;;5001645;28;20197;-77
2021/05/08 01:07:02;;;;;;;9.03;7.13;;;4.70;99.90;;;;;;5001499;28;20201;-77
2021/05/08 01:09:29;;;;;;;10.83;7.07;;;4.70;99.90;;;;;;5001565;28;20208;-76
2021/05/08 01:11:57;;;;;;;9.07;6.60;;;4.80;99.90;;;;;;5001147;28;20850;-76
2021/05/08 01:14:24;;;;;;;8.43;7.10;;;4.80;99.90;;;;;;5006667;28;20212;-77
2021/05/08 01:16:51;;;;;;;9.83;7.43;;;4.90;99.90;;;;;;5006979;28;20240;-78
2021/05/08 01:19:20;;;;;;;10.50;7.30;;;5.10;99.90;;;;;;4997694;28;20208;-77
2021/05/08 01:21:47;;;;;;;11.47;7.33;;;5.10;99.90;;;;;;4994337;28;20674;-78
2021/05/08 01:24:14;;;;;;;12.43;7.80;;;5.20;99.90;;;;;;4997501;28;20678;-77
2021/05/08 01:26:41;;;;;;;9.63;7.67;;;5.30;99.90;;;;;;4993859;28;20201;-77
2021/05/08 01:29:07;;;;;;;8.60;7.50;;;5.40;99.90;;;;;;5001457;28;20268;-78
2021/05/08 01:31:34;;;;;;;11.53;7.90;;;5.50;99.90;;;;;;5001891;28;20205;-78
2021/05/08 01:34:02;;;;;;;12.03;8.03;;;5.60;99.90;;;;;;5000873;28;20235;-77
2021/05/08 01:36:31;;;;;;;11.77;7.73;;;5.70;99.90;;;;;;4997472;28;20225;-78
2021/05/08 01:38:59;;;;;;;9.03;7.60;;;5.80;99.90;;;;;;5004455;28;20626;-77
2021/05/08 01:41:26;;;;;;;9.53;7.70;;;5.90;99.90;;;;;;5003688;28;20201;-77
2021/05/08 01:43:52;;;;;;;8.90;7.10;;;6.10;99.90;;;;;;5004637;28;20204;-77
2021/05/08 01:46:19;;;;;;;10.77;7.90;;;6.10;99.90;;;;;;5004394;28;20212;-78
2021/05/08 01:48:45;;;;;;;9.47;7.63;;;6.10;99.90;;;;;;5014130;28;20211;-75
2021/05/08 01:51:13;;;;;;;8.67;7.70;;;6.20;99.90;;;;;;5000913;28;20259;-76
2021/05/08 01:53:39;;;;;;;11.27;8.60;;;6.20;99.90;;;;;;4999683;28;20262;-77
2021/05/08 01:56:07;;;;;;;11.43;7.73;;;6.20;99.90;;;;;;4991634;28;20824;-75
2021/05/08 01:58:34;;;;;;;11.00;8.27;;;6.30;99.90;;;;;;5001225;28;20663;-78
2021/05/08 02:01:01;;;;;;;10.00;7.47;;;6.40;99.90;;;;;;4992809;28;20629;-77
2021/05/08 02:03:28;;;;;;;11.20;8.20;;;6.40;99.90;;;;;;4992800;28;20672;-77
2021/05/08 02:05:55;;;;;;;11.13;8.97;;;6.50;99.90;;;;;;5001805;28;20204;-78
2021/05/08 02:08:21;;;;;;;10.60;8.37;;;6.50;99.90;;;;;;5003025;28;20202;-78
2021/05/08 02:10:48;;;;;;;10.30;8.00;;;6.50;99.90;;;;;;5002642;28;20196;-77
2021/05/08 02:13:16;;;;;;;8.60;7.43;;;6.60;99.90;;;;;;5000770;28;20201;-73
2021/05/08 02:15:43;;;;;;;10.70;8.13;;;6.60;99.90;;;;;;5001094;28;20198;-75
2021/05/08 02:18:10;;;;;;;10.43;7.87;;;6.60;99.90;;;;;;4990645;28;20229;-77
2021/05/08 02:20:38;;;;;;;13.33;8.53;;;6.70;99.90;;;;;;4999872;28;20204;-76
2021/05/08 02:23:08;;;;;;;9.37;7.30;;;6.70;99.90;;;;;;5004942;28;20201;-77
2021/05/08 02:25:34;;;;;;;11.73;7.53;;;6.80;99.90;;;;;;4998506;28;20200;-78
2021/05/08 02:28:01;;;;;;;9.37;8.37;;;6.80;99.90;;;;;;4994158;28;20213;-77
2021/05/08 02:30:30;;;;;;;9.70;7.80;;;6.80;99.90;;;;;;4990985;28;20237;-75
2021/05/08 02:32:58;;;;;;;9.40;8.07;;;6.80;99.90;;;;;;4996044;28;20217;-77
2021/05/08 02:35:26;;;;;;;10.80;8.47;;;6.80;99.90;;;;;;5006271;28;20197;-77
2021/05/08 02:37:53;;;;;;;12.00;8.40;;;6.80;99.90;;;;;;5005329;28;20254;-77
2021/05/08 02:40:22;;;;;;;10.93;8.20;;;6.80;99.90;;;;;;4989823;28;20255;-77
2021/05/08 02:42:49;;;;;;;10.13;8.40;;;6.80;99.90;;;;;;5003912;28;20205;-79
2021/05/08 02:45:16;;;;;;;9.33;7.53;;;6.80;99.90;;;;;;4990631;28;20205;-75
2021/05/08 02:47:45;;;;;;;10.83;7.93;;;6.80;99.90;;;;;;4990398;28;20206;-76
2021/05/08 02:50:14;;;;;;;10.60;7.83;;;6.90;99.90;;;;;;5005015;28;20205;-76
2021/05/08 02:52:41;;;;;;;10.20;8.33;;;7.00;99.90;;;;;;4996647;28;20210;-75
2021/05/08 02:55:09;;;;;;;10.63;8.50;;;7.00;99.90;;;;;;4989942;28;20206;-76
2021/05/08 02:57:36;;;;;;;11.67;9.07;;;7.10;99.90;;;;;;4989940;28;20229;-76
2021/05/08 03:00:05;;;;;;;9.83;8.50;;;7.10;99.90;;;;;;5002865;28;20204;-76
2021/05/08 03:02:31;;;;;;;9.77;8.13;;;7.20;99.90;;;;;;4992281;28;20202;-76
2021/05/08 03:04:59;;;;;;;12.00;9.30;;;7.30;99.90;;;;;;4989922;28;20201;-76
2021/05/08 03:07:25;;;;;;;12.27;8.40;;;7.30;99.90;;;;;;4995494;28;20197;-76
2021/05/08 03:09:52;;;;;;;11.40;9.10;;;7.30;99.90;;;;;;4991170;28;20236;-74
2021/05/08 03:12:18;;;;;;;22.47;9.43;;;7.40;99.90;;;;;;5002495;28;20215;-76
2021/05/08 03:14:45;;;;;;;11.97;9.17;;;7.40;99.90;;;;;;4995738;28;20244;-75
2021/05/08 03:17:11;;;;;;;11.27;8.53;;;7.40;99.90;;;;;;4992706;28;20649;-76
2021/05/08 03:19:38;;;;;;;9.93;8.50;;;7.30;99.90;;;;;;5004069;28;20205;-76
2021/05/08 03:22:06;;;;;;;11.10;9.17;;;7.40;99.90;;;;;;5001719;28;20202;-76
2021/05/08 03:24:33;;;;;;;13.23;8.97;;;7.30;99.90;;;;;;4996853;28;20200;-77
2021/05/08 03:26:59;;;;;;;14.77;9.23;;;7.20;99.90;;;;;;5003814;28;20201;-76
2021/05/08 03:29:26;;;;;;;11.47;9.43;;;7.20;99.90;;;;;;5002858;28;20232;-76
2021/05/08 03:31:52;;;;;;;10.73;9.27;;;7.10;99.90;;;;;;5004587;28;20589;-76
2021/05/08 03:34:19;;;;;;;10.90;8.23;;;7.00;99.90;;;;;;4999104;28;20210;-74
2021/05/08 03:36:46;;;;;;;11.90;9.07;;;6.90;99.90;;;;;;4995352;28;20322;-76
2021/05/08 03:39:13;;;;;;;11.63;9.27;;;6.80;99.90;;;;;;4997482;28;20255;-76
2021/05/08 03:41:40;;;;;;;13.87;9.10;;;6.80;99.90;;;;;;4997463;28;20212;-76
2021/05/08 03:44:07;;;;;;;14.33;9.10;;;6.70;99.90;;;;;;5001144;28;20205;-76
2021/05/08 03:46:34;;;;;;;12.63;9.47;;;6.60;99.90;;;;;;5002258;28;20201;-76
2021/05/08 03:49:00;;;;;;;12.57;9.17;;;6.60;99.90;;;;;;5008035;28;20719;-73
2021/05/08 03:51:27;;;;;;;14.60;8.97;;;6.50;99.90;;;;;;5002151;28;20251;-76
2021/05/08 03:53:54;;;;;;;12.60;9.63;;;6.40;99.90;;;;;;4998089;28;20201;-74
2021/05/08 03:56:21;;;;;;;15.63;10.23;;;6.30;99.90;;;;;;5004843;28;20212;-76
2021/05/08 03:58:48;;;;;;;12.97;9.70;;;6.30;99.90;;;;;;4988523;28;20591;-78
2021/05/08 04:01:14;;;;;;;15.27;10.00;;;6.10;99.90;;;;;;5004068;28;20258;-76
2021/05/08 04:03:41;;;;;;;12.50;9.80;;;6.10;99.90;;;;;;4989412;28;20221;-75
2021/05/08 04:06:08;;;;;;;14.30;9.63;;;6.00;99.90;;;;;;5000928;28;20251;-77
2021/05/08 04:08:34;;;;;;;15.40;10.77;;;5.90;99.90;;;;;;5001990;28;20716;-77
2021/05/08 04:11:01;;;;;;;14.53;10.93;;;5.90;99.90;;;;;;4997659;28;20209;-77
2021/05/08 04:13:28;;;;;;;14.37;10.23;;;5.80;99.90;;;;;;4996108;28;20204;-77
2021/05/08 04:15:55;;;;;;;17.30;10.60;;;5.80;99.90;;;;;;5002276;28;20897;-77
2021/05/08 04:18:21;;;;;;;16.23;10.93;;;5.80;99.90;;;;;;5000227;28;20260;-76
2021/05/08 04:20:48;;;;;;;15.93;11.27;;;5.80;99.90;;;;;;4996407;28;20238;-76
2021/05/08 04:23:15;;;;;;;14.17;11.63;;;5.90;99.90;;;;;;5001190;28;20301;-76
2021/05/08 04:25:42;;;;;;;15.93;11.10;;;6.00;99.90;;;;;;5001031;28;20209;-78
2021/05/08 04:28:09;;;;;;;15.00;11.87;;;6.10;99.90;;;;;;5004480;28;20208;-78
2021/05/08 04:30:37;;;;;;;14.90;11.30;;;6.30;99.90;;;;;;4998669;28;20240;-76
2021/05/08 04:33:03;;;;;;;14.90;11.73;;;6.40;99.90;;;;;;5000524;28;20223;-77
2021/05/08 04:35:30;;;;;;;15.53;11.43;;;6.50;99.90;;;;;;5003341;28;20658;-77
2021/05/08 04:38:01;;;;;;;16.77;12.20;;;6.70;99.90;;;;;;4998098;28;20231;-76
2021/05/08 04:40:28;;;;;;;15.87;11.27;;;6.80;99.90;;;;;;4995642;28;20197;-77
2021/05/08 04:42:55;;;;;;;14.10;10.53;;;7.00;99.90;;;;;;4992702;28;20663;-78
2021/05/08 04:45:24;;;;;;;12.33;10.30;;;7.10;99.90;;;;;;4993749;28;20271;-78
2021/05/08 04:47:53;;;;;;;15.07;10.20;;;7.20;99.90;;;;;;4995155;28;20201;-78
2021/05/08 04:50:20;;;;;;;13.50;9.60;;;7.30;99.90;;;;;;4992130;28;20205;-76
2021/05/08 04:52:46;;;;;;;14.13;10.63;;;7.50;99.90;;;;;;5002505;28;20232;-76
2021/05/08 04:55:13;;;;;;;14.23;9.53;;;7.60;99.90;;;;;;4992152;28;20214;-76
2021/05/08 04:57:40;;;;;;;12.07;9.90;;;7.70;99.90;;;;;;4993662;28;20265;-78
2021/05/08 05:00:07;;;;;;;11.03;9.30;;;7.70;99.90;;;;;;5005634;28;20205;-77
2021/05/08 05:02:34;;;;;;;15.60;9.43;;;7.80;99.90;;;;;;5001793;28;20205;-75
2021/05/08 05:05:01;;;;;;;12.97;9.27;;;7.80;99.90;;;;;;4992111;28;20244;-75
2021/05/08 05:07:27;;;;;;;12.17;8.87;;;7.90;99.90;;;;;;5000322;28;20210;-77
2021/05/08 05:09:54;;;;;;;11.23;8.17;;;7.90;99.90;;;;;;4998515;28;20614;-73
2021/05/08 05:12:20;;;;;;;11.70;8.43;;;8.00;99.90;;;;;;4992083;28;20197;-74
2021/05/08 05:14:47;;;;;;;12.17;8.60;;;8.00;99.90;;;;;;4992046;28;20206;-69
2021/05/08 05:17:13;;;;;;;12.50;8.33;;;8.00;99.90;;;;;;4993209;28;20240;-72
2021/05/08 05:19:40;;;;;;;10.63;7.90;;;8.10;99.90;;;;;;5003532;28;20204;-73
2021/05/08 05:22:07;;;;;;;11.90;7.77;;;8.10;99.90;;;;;;5004014;28;20758;-78
2021/05/08 05:24:34;;;;;;;9.17;8.10;;;8.20;99.90;;;;;;5003367;28;20197;-76
2021/05/08 05:27:00;;;;;;;9.83;8.10;;;8.30;99.90;;;;;;4997686;28;20209;-75
2021/05/08 05:29:27;;;;;;;12.17;8.60;;;8.40;99.90;;;;;;5006937;28;20244;-74
2021/05/08 05:31:53;;;;;;;10.33;7.90;;;8.50;99.90;;;;;;4999703;28;20292;-75
2021/05/08 05:34:21;;;;;;;13.40;8.70;;;8.60;99.90;;;;;;4999220;28;20205;-76
2021/05/08 05:36:47;;;;;;;11.40;8.23;;;8.70;99.90;;;;;;5002887;28;20197;-76
2021/05/08 05:39:15;;;;;;;11.93;8.73;;;8.80;99.90;;;;;;5000074;28;20204;-77
2021/05/08 05:41:41;;;;;;;11.57;9.00;;;9.00;99.90;;;;;;4998539;28;20242;-74
2021/05/08 05:44:08;;;;;;;10.17;8.20;;;9.00;99.90;;;;;;5007652;28;20217;-77
2021/05/08 05:46:34;;;;;;;13.63;8.33;;;9.10;99.90;;;;;;5001607;28;20803;-73
2021/05/08 05:49:01;;;;;;;9.83;7.77;;;9.10;99.90;;;;;;5006657;28;20763;-76
2021/05/08 05:51:28;;;;;;;9.97;7.33;;;9.10;99.90;;;;;;5004852;28;20204;-76
2021/05/08 05:53:56;;;;;;;12.20;8.13;;;9.00;99.90;;;;;;4999273;28;20675;-71
2021/05/08 05:56:25;;;;;;;12.07;8.67;;;9.00;99.90;;;;;;5001996;28;20211;-78
2021/05/08 05:58:52;;;;;;;12.03;8.40;;;9.00;99.90;;;;;;4989992;28;20269;-75
2021/05/08 06:01:19;;;;;;;11.17;8.13;;;9.00;99.90;;;;;;5003388;28;20223;-72
2021/05/08 06:03:46;;;;;;;10.80;8.33;;;9.00;99.90;;;;;;5002118;28;20226;-71
2021/05/08 06:06:12;;;;;;;11.80;8.17;;;9.00;99.90;;;;;;4991114;28;20201;-73
2021/05/08 06:08:39;;;;;;;13.87;8.17;;;9.00;99.90;;;;;;4996571;28;20213;-73
2021/05/08 06:11:06;;;;;;;10.27;7.93;;;9.00;99.90;;;;;;5003086;28;20201;-75
2021/05/08 06:13:33;;;;;;;10.97;8.67;;;9.00;99.90;;;;;;4998725;28;20226;-73
2021/05/08 06:16:00;;;;;;;12.03;8.57;;;9.10;99.90;;;;;;4999157;28;20205;-76
2021/05/08 06:18:27;;;;;;;11.20;8.33;;;9.10;99.90;;;;;;5004020;28;20638;-76
2021/05/08 06:20:54;;;;;;;10.37;7.67;;;9.20;99.90;;;;;;5004033;28;20209;-76
2021/05/08 06:23:20;;;;;;;10.60;7.53;;;9.20;99.90;;;;;;5008045;28;20205;-75
2021/05/08 06:25:47;;;;;;;9.00;6.93;;;9.30;99.90;;;;;;4997884;28;20667;-73
2021/05/08 06:28:15;;;;;;;9.43;7.27;;;9.30;99.90;;;;;;5000845;28;20975;-73
2021/05/08 06:30:42;;;;;;;10.60;7.33;;;9.40;99.90;;;;;;5006815;28;20237;-74
2021/05/08 06:33:09;;;;;;;11.90;7.63;;;9.40;99.90;;;;;;4993196;28;20210;-75
2021/05/08 06:35:35;;;;;;;9.67;7.33;;;9.50;99.90;;;;;;4996429;28;20201;-71
2021/05/08 06:38:02;;;;;;;10.57;7.50;;;9.50;99.90;;;;;;4999069;28;20224;-76
2021/05/08 06:40:29;;;;;;;11.40;7.37;;;9.60;99.90;;;;;;5002772;28;20193;-72
2021/05/08 06:42:56;;;;;;;10.70;7.50;;;9.70;99.90;;;;;;4998222;28;20198;-72
2021/05/08 06:45:23;;;;;;;8.80;6.67;;;9.80;99.90;;;;;;4994494;28;20792;-72
2021/05/08 06:47:57;;;;;;;9.43;6.77;;;9.90;99.90;;;;;;5001564;28;20202;-72
2021/05/08 06:50:24;;;;;;;9.67;6.60;;;10.00;99.90;;;;;;5002114;28;20192;-72
2021/05/08 06:52:51;;;;;;;8.90;6.87;;;10.10;99.90;;;;;;5001450;28;20967;-74
2021/05/08 06:55:17;;;;;;;7.97;6.40;;;10.20;99.90;;;;;;5003665;28;20208;-71
2021/05/08 06:57:44;;;;;;;6.80;6.10;;;10.30;99.90;;;;;;4998494;28;20232;-72
2021/05/08 07:00:11;;;;;;;8.97;6.87;;;10.30;99.90;;;;;;5002644;28;20201;-73
2021/05/08 07:02:38;;;;;;;8.87;6.77;;;10.30;99.90;;;;;;5002494;28;20208;-71
2021/05/08 07:05:06;;;;;;;9.10;6.67;;;10.40;99.90;;;;;;5001839;28;20200;-72
2021/05/08 07:07:33;;;;;;;8.73;6.90;;;10.50;99.90;;;;;;5003568;28;20205;-71
2021/05/08 07:09:59;;;;;;;10.73;6.10;;;10.50;99.90;;;;;;5002601;28;20836;-72
2021/05/08 07:12:26;;;;;;;9.07;6.23;;;10.50;99.90;;;;;;4999947;28;20197;-70
2021/05/08 07:14:52;;;;;;;10.33;6.83;;;10.60;99.90;;;;;;5001102;28;20201;-71
2021/05/08 07:17:19;;;;;;;9.47;7.30;;;10.60;99.90;;;;;;4995826;28;20237;-74
2021/05/08 07:19:45;;;;;;;9.67;6.33;;;10.70;99.90;;;;;;4994341;28;20189;-72
2021/05/08 07:22:13;;;;;;;8.47;6.57;;;10.80;99.90;;;;;;4994419;28;20659;-72
2021/05/08 07:24:39;;;;;;;10.27;7.10;;;10.90;99.90;;;;;;4994517;28;20652;-74
2021/05/08 07:27:06;;;;;;;8.87;6.03;;;11.00;99.90;;;;;;4990167;28;20540;-71
2021/05/08 07:29:32;;;;;;;10.17;6.30;;;11.10;99.90;;;;;;4995014;28;20878;-71
2021/05/08 07:31:59;;;;;;;12.33;7.70;;;11.20;99.90;;;;;;4997600;28;20268;-72
2021/05/08 07:34:26;;;;;;;9.90;7.70;;;11.20;99.90;;;;;;4993941;28;20558;-74
2021/05/08 07:36:52;;;;;;;9.87;7.27;;;11.30;99.90;;;;;;4995147;28;20205;-72
2021/05/08 07:39:20;;;;;;;13.10;7.87;;;11.10;99.90;;;;;;4994853;28;20205;-72
2021/05/08 07:41:46;;;;;;;12.20;7.60;;;11.20;99.90;;;;;;5002052;28;20716;-71
2021/05/08 07:44:13;;;;;;;10.20;7.57;;;11.10;99.90;;;;;;5015991;28;20207;-72
2021/05/08 07:46:39;;;;;;;12.40;7.90;;;11.10;99.90;;;;;;4990039;28;20210;-72
2021/05/08 07:49:06;;;;;;;11.73;7.53;;;10.90;99.90;;;;;;4996456;28;20201;-73
2021/05/08 07:51:32;;;;;;;11.10;7.80;;;10.80;99.90;;;;;;5000329;28;20240;-72
2021/05/08 07:53:59;;;;;;;11.77;8.00;;;10.60;99.90;;;;;;4989828;28;20436;-74
2021/05/08 07:56:26;;;;;;;11.03;7.83;;;10.50;99.90;;;;;;4993101;28;20213;-75
2021/05/08 07:58:52;;;;;;;10.67;8.20;;;10.50;99.90;;;;;;5002706;28;20228;-74
2021/05/08 08:01:21;;;;;;;13.33;9.00;;;10.60;99.90;;;;;;4989157;28;20205;-75
2021/05/08 08:03:47;;;;;;;13.17;8.43;;;10.70;99.90;;;;;;5001373;28;20766;-75
2021/05/08 08:06:14;;;;;;;10.53;7.87;;;10.90;99.90;;;;;;4994231;28;20205;-73
2021/05/08 08:08:40;;;;;;;9.93;7.00;;;11.10;99.90;;;;;;4989415;28;20201;-75
2021/05/08 08:11:07;;;;;;;10.57;6.80;;;11.30;99.90;;;;;;4992143;28;20691;-77
2021/05/08 08:13:34;;;;;;;9.63;7.63;;;11.40;99.90;;;;;;4990855;28;20198;-76
2021/05/08 08:16:01;;;;;;;10.63;8.43;;;11.30;99.90;;;;;;4996131;28;20208;-75
2021/05/08 08:18:28;;;;;;;8.47;6.93;;;11.30;99.90;;;;;;5006700;28;20563;-75
2021/05/08 08:20:54;;;;;;;13.77;9.23;;;11.20;99.90;;;;;;5004825;28;20232;-76
2021/05/08 08:23:21;;;;;;;14.20;8.50;;;11.10;99.90;;;;;;4999012;28;20675;-76
2021/05/08 08:25:50;;;;;;;10.70;8.10;;;11.00;99.90;;;;;;4992410;28;20208;-75
2021/05/08 08:28:16;;;;;;;11.73;8.87;;;10.90;99.90;;;;;;4996575;28;20217;-75
2021/05/08 08:30:44;;;;;;;12.70;9.27;;;10.70;99.90;;;;;;4994549;28;20201;-76
2021/05/08 08:33:10;;;;;;;14.37;9.10;;;10.60;99.90;;;;;;5001061;28;20201;-78
2021/05/08 08:35:37;;;;;;;13.53;9.33;;;10.50;99.90;;;;;;4994816;28;20197;-74
2021/05/08 08:38:03;;;;;;;14.80;8.77;;;10.40;99.90;;;;;;4995351;28;20224;-80
2021/05/08 08:40:30;;;;;;;12.07;8.83;;;10.40;99.90;;;;;;4999835;28;20205;-74
2021/05/08 08:42:56;;;;;;;13.10;8.73;;;10.40;99.90;;;;;;4993971;28;20212;-72
2021/05/08 08:45:23;;;;;;;12.73;8.30;;;10.30;99.90;;;;;;4993284;28;20208;-75
2021/05/08 08:47:51;;;;;;;10.77;8.67;;;10.20;99.90;;;;;;4999814;28;20208;-75
2021/05/08 08:50:17;;;;;;;11.87;8.90;;;10.20;99.90;;;;;;4989587;28;20205;-73
2021/05/08 08:52:44;;;;;;;13.17;9.27;;;10.30;99.90;;;;;;4990732;28;20225;-73
2021/05/08 08:55:11;;;;;;;11.90;8.83;;;10.30;99.90;;;;;;4991053;28;20197;-74
2021/05/08 08:57:41;;;;;;;12.73;7.93;;;10.40;99.90;;;;;;5001675;28;20218;-76
2021/05/08 09:00:12;;;;;;;16.10;8.80;;;10.30;99.90;;;;;;4988839;28;20625;-74
2021/05/08 09:02:39;;;;;;;14.83;8.60;;;10.20;99.90;;;;;;4996630;28;20190;-76
2021/05/08 09:05:09;;;;;;;11.57;6.83;;;10.10;99.90;;;;;;4997543;28;20590;-72
2021/05/08 09:07:36;;;;;;;10.93;8.10;;;10.00;99.90;;;;;;4994036;28;20205;-75
2021/05/08 09:10:05;;;;;;;8.50;7.17;;;10.10;99.90;;;;;;4992367;28;20566;-74
2021/05/08 09:12:44;;;;;;;8.50;7.50;;;10.10;99.90;;;;;;4992124;28;20823;-74
2021/05/08 09:15:11;;;;;;;9.23;7.37;;;10.10;99.90;;;;;;4997544;28;21233;-74
2021/05/08 09:17:43;;;;;;;12.13;7.27;;;10.00;99.90;;;;;;4994471;28;20232;-74
2021/05/08 09:20:13;;;;;;;8.57;7.37;;;9.90;99.90;;;;;;4994087;28;20198;-73
2021/05/08 09:22:40;;;;;;;9.93;7.20;;;9.90;99.90;;;;;;4992231;28;20198;-75
2021/05/08 09:25:10;;;;;;;8.37;7.47;;;9.80;99.90;;;;;;4993451;28;20198;-75
2021/05/08 09:27:42;;;;;;;10.30;7.83;;;9.80;99.90;;;;;;4993517;28;20221;-75
2021/05/08 09:30:13;;;;;;;9.53;7.80;;;9.80;99.90;;;;;;4998312;28;20267;-73
2021/05/08 09:32:41;;;;;;;12.20;8.07;;;9.90;99.90;;;;;;4992213;28;20284;-74
2021/05/08 09:35:15;;;;;;;13.87;8.93;;;9.90;99.90;;;;;;4992333;28;20205;-73
2021/05/08 09:37:41;;;;;;;9.67;8.57;;;10.00;99.90;;;;;;4990802;28;20295;-75
2021/05/08 09:40:16;;;;;;;10.17;8.13;;;10.00;99.90;;;;;;4992726;28;20229;-74
2021/05/08 09:42:44;;;;;;;10.30;7.77;;;10.00;99.90;;;;;;4995691;28;20212;-69
2021/05/08 09:45:11;;;;;;;9.73;8.07;;;9.90;99.90;;;;;;4991707;28;20197;-72
2021/05/08 09:47:38;;;;;;;9.53;7.93;;;9.90;99.90;;;;;;4992045;28;20248;-70
2021/05/08 09:50:05;;;;;;;12.87;8.53;;;9.80;99.90;;;;;;4994255;28;20213;-69
2021/05/08 09:52:50;;;;;;;9.70;8.33;;;9.70;99.90;;;;;;4993419;28;20201;-70
2021/05/08 09:55:18;;;;;;;9.73;8.27;;;9.80;99.90;;;;;;4992652;28;20198;-75
2021/05/08 09:58:02;;;;;;;14.60;8.57;;;9.80;99.90;;;;;;4992718;28;20222;-72
2021/05/08 10:00:30;;;;;;;10.97;8.73;;;9.70;99.90;;;;;;4990989;28;20193;-71
2021/05/08 10:03:09;;;;;;;11.30;8.73;;;9.70;99.90;;;;;;4993408;28;20198;-74
2021/05/08 10:05:37;;;;;;;11.93;9.23;;;9.70;99.90;;;;;;4993038;28;20194;-74
2021/05/08 10:08:07;;;;;;;10.73;8.87;;;9.70;99.90;;;;;;4989998;28;20209;-72
2021/05/08 10:10:34;;;;;;;10.07;8.93;;;9.70;99.90;;;;;;4992813;28;22720;-73
2021/05/08 10:13:06;;;;;;;12.17;8.93;;;9.70;99.90;;;;;;5003308;28;20205;-72
2021/05/08 10:15:34;;;;;;;11.07;9.13;;;9.80;99.90;;;;;;4993363;28;20197;-72
2021/05/08 10:18:04;;;;;;;12.13;9.13;;;9.90;99.90;;;;;;4991874;28;20965;-72
2021/05/08 10:20:30;;;;;;;13.03;9.13;;;9.90;99.90;;;;;;4990383;28;20220;-71
2021/05/08 10:22:59;;;;;;;11.47;8.80;;;10.00;99.90;;;;;;4989298;28;20201;-73
2021/05/08 10:25:28;;;;;;;10.90;9.33;;;10.10;99.90;;;;;;4992484;28;20307;-73
2021/05/08 10:27:54;;;;;;;9.80;8.57;;;10.10;99.90;;;;;;4990308;28;20208;-72
2021/05/08 10:30:23;;;;;;;10.37;9.17;;;10.10;99.90;;;;;;4993195;28;20640;-74
2021/05/08 10:32:51;;;;;;;10.53;8.63;;;10.10;99.90;;;;;;4994313;28;20207;-70
2021/05/08 10:35:24;;;;;;;10.77;8.93;;;10.10;99.90;;;;;;4991738;28;20208;-72
2021/05/08 10:38:22;;;;;;;10.47;9.37;;;10.20;99.90;;;;;;4989329;28;20305;-71
2021/05/08 10:41:02;;;;;;;11.33;8.73;;;10.30;99.90;;;;;;4982910;28;20201;-73
2021/05/08 10:43:54;;;;;;;11.43;9.50;;;10.40;99.90;;;;;;4992713;28;20643;-73
2021/05/08 10:46:22;;;;;;;10.63;9.33;;;10.40;99.90;;;;;;4989838;28;20200;-74
2021/05/08 10:49:20;;;;;;;11.07;9.87;;;10.50;99.90;;;;;;4991103;28;20205;-75
2021/05/08 10:52:05;;;;;;;10.47;9.03;;;10.70;99.90;;;;;;4994150;28;20215;-73
2021/05/08 10:54:56;;;;;;;10.90;8.70;;;10.90;99.90;;;;;;5003509;28;20673;-69
2021/05/08 10:57:25;;;;;;;12.17;9.13;;;11.00;99.90;;;;;;4995741;28;20697;-72
2021/05/08 11:00:27;;;;;;;9.40;8.40;;;10.90;99.90;;;;;;5002145;28;20197;-72
2021/05/08 11:03:04;;;;;;;10.37;8.30;;;10.80;99.90;;;;;;4965093;28;21698;-71
2021/05/08 11:05:33;;;;;;;9.57;8.17;;;10.80;99.90;;;;;;4990920;28;20251;-74
2021/05/08 11:07:59;;;;;;;10.53;8.03;;;10.80;99.90;;;;;;4994334;28;20550;-74
2021/05/08 11:10:40;;;;;;;9.60;8.60;;;10.60;99.90;;;;;;4992953;28;20213;-75
2021/05/08 11:13:08;;;;;;;9.73;8.73;;;10.50;99.90;;;;;;4990088;28;20614;-73
2021/05/08 11:16:08;;;;;;;12.20;9.60;;;10.60;99.90;;;;;;4991977;28;20194;-70
2021/05/08 11:18:37;;;;;;;12.73;9.70;;;10.70;99.90;;;;;;4949402;28;20226;-74
2021/05/08 11:21:05;;;;;;;13.10;10.50;;;10.80;99.90;;;;;;4980377;28;20228;-74
2021/05/08 11:23:41;;;;;;;11.13;9.93;;;10.90;99.90;;;;;;4989364;28;20721;-73
2021/05/08 11:26:33;;;;;;;13.13;10.83;;;11.00;99.90;;;;;;4991599;28;20207;-74
2021/05/08 11:29:02;;;;;;;12.73;9.50;;;11.10;99.90;;;;;;4995454;28;20967;-73
2021/05/08 11:31:30;;;;;;;13.97;10.57;;;11.20;99.90;;;;;;4988885;28;20671;-73
2021/05/08 11:34:08;;;;;;;10.80;9.70;;;11.30;99.90;;;;;;4989260;28;20272;-74
2021/05/08 11:36:52;;;;;;;12.13;9.87;;;11.50;99.90;;;;;;4989959;28;20244;-73
2021/05/08 11:39:20;;;;;;;10.33;9.33;;;11.40;99.90;;;;;;5004114;28;20228;-73
2021/05/08 11:41:48;;;;;;;11.97;10.20;;;11.50;99.90;;;;;;4988215;28;20204;-74
2021/05/08 11:44:29;;;;;;;13.40;11.07;;;11.50;99.90;;;;;;4996981;28;20197;-73
2021/05/08 11:46:58;;;;;;;14.43;10.70;;;11.40;99.90;;;;;;4989429;28;20209;-73
2021/05/08 11:49:30;;;;;;;13.43;12.03;;;11.60;99.90;;;;;;4989478;28;20213;-73
2021/05/08 11:51:58;;;;;;;13.93;11.93;;;11.90;99.90;;;;;;4998231;28;20200;-72
2021/05/08 11:54:27;;;;;;;17.23;12.70;;;12.00;99.90;;;;;;5000661;28;20206;-73
2021/05/08 11:56:54;;;;;;;16.60;13.03;;;11.80;99.90;;;;;;4988093;28;20201;-73
2021/05/08 11:59:33;;;;;;;16.93;13.40;;;11.90;99.90;;;;;;4988881;28;21130;-72
2021/05/08 12:02:14;;;;;;;18.90;14.17;;;12.00;99.90;;;;;;4993710;28;20292;-73
2021/05/08 12:04:48;;;;;;;16.80;13.90;;;11.90;99.90;;;;;;5016815;28;20588;-72
2021/05/08 12:07:17;;;;;;;17.07;13.63;;;11.90;99.90;;;;;;4989473;28;20201;-73
2021/05/08 12:09:44;;;;;;;18.27;14.10;;;11.80;99.90;;;;;;5000246;28;20547;-73
2021/05/08 12:12:11;;;;;;;19.97;14.60;;;11.80;99.90;;;;;;5001912;28;20214;-73
2021/05/08 12:14:40;;;;;;;21.80;15.00;;;11.80;99.90;;;;;;5006908;28;20207;-73
2021/05/08 12:17:07;;;;;;;22.33;15.73;;;11.80;99.90;;;;;;5004023;28;20701;-73
2021/05/08 12:19:34;;;;;;;20.83;17.00;;;11.70;99.90;;;;;;5000762;28;20256;-72
2021/05/08 12:22:01;;;;;;;21.87;17.53;;;11.60;99.90;;;;;;4989329;28;20256;-74
2021/05/08 12:24:27;;;;;;;23.20;17.50;;;11.60;99.90;;;;;;4989127;28;20531;-73
2021/05/08 12:26:54;;;;;;;22.43;17.67;;;11.60;99.90;;;;;;4988907;28;20572;-72
2021/05/08 12:29:21;;;;;;;24.20;18.33;;;11.70;99.90;;;;;;4994196;28;20265;-73
2021/05/08 12:31:48;;;;;;;27.83;18.43;;;11.90;99.90;;;;;;4988566;28;20197;-73
2021/05/08 12:34:17;;;;;;;33.93;20.17;;;11.90;99.90;;;;;;4988871;28;20229;-72
2021/05/08 12:36:59;;;;;;;30.53;21.60;;;12.00;99.90;;;;;;4989966;28;20562;-73
2021/05/08 12:39:26;;;;;;;35.83;23.37;;;12.20;99.90;;;;;;4994025;28;20612;-73
2021/05/08 12:41:54;;;;;;;35.50;22.40;;;12.40;99.90;;;;;;4998679;28;20255;-73
2021/05/08 12:44:33;;;;;;;34.03;22.17;;;12.60;99.90;;;;;;4994988;28;20200;-73
2021/05/08 12:47:04;;;;;;;31.20;20.43;;;12.90;99.90;;;;;;4993607;28;20724;-73
2021/05/08 12:49:32;;;;;;;23.77;18.20;;;13.20;99.90;;;;;;5003257;28;20299;-73